Palm Beach International Airport
KPBI : now visible

Airfield :











YOU CAN JOIN US ON...

 
LOGIN :

Register | Disclaimer

   EN    FR    IT 

 









Legend :    VFR   Marginal VFR   IFR   Intensive IFR   Very Intensive IFR
Visi :
Ceiling :
>= 8 km
>= 3000ft
5 to 8 km
1000 to 3000 ft
1500m to 5 km
500 to 1000 ft
800 to 1500m
200 to 500 ft
< 800m
< 200 ft
Symbols :   Thunderstorms  Fog  Heavy snow  Heavy precipitations  Wind > 20 kt






- Airport Elevation : 19 ft
- IATA code : PBI


KPBI - Palm Beach International

CURRENT METAR :
  • 041453Z 34004KT 10SM SCT047 SCT250 24/17 A3019 RMK AO2 SLP224 T02440172 51009 $

EXPIRED METARs :
  • 041353Z 32004KT 10SM SCT050 SCT250 22/18 A3019 RMK AO2 SLP222 T02170178 $
  • 041253Z 32004KT 10SM FEW040 BKN050 BKN250 21/18 A3018 RMK AO2 SLP217 T02110183 $

TAF KPBI
Valid from the 04 at 15:00 until the 05 at 12:00 UTC


041459Z 0415/0512 05009KT P6SM SCT035 BKN050
FM050000 VRB04KT P6SM FEW040
KZMA FIR / North America



MET'MAP, your aeronautical weather chart ! - Copyright ORBIFLY December 2007 - Disclaimer

ORBIFLY MET'MAP TEAM :

Programming & Development : Alexandra Zaïnal
Original concept : Baudouin d'Aumeries
Technical & hardware support : Manuel Goepfert
Assistance : Marc-Olivier Méhu




SOURCES & CREDITS :

   NOAA       Earth
Advisory